Time;durP1;ratioP1;P1;durP2;ratioP2;P2;SDS_P1;SDS_P2;PMS_P1;PMS_P2;Temp;Humidity;BMP_temperature;BMP_pressure;BME280_temperature;BME280_humidity;BME280_pressure;Samples;Min_cycle;Max_cycle;Signal;HPM_P1;HPM_P2
2021/11/26 00:01:40;;;;;;;5.88;1.23;;;;;;;2.09;70.64;99589.06;4967500;28;20043;-44
2021/11/26 00:04:08;;;;;;;3.78;1.02;;;;;;;2.07;68.86;99570.28;4966140;28;20081;-43
2021/11/26 00:06:35;;;;;;;8.75;1.33;;;;;;;2.04;69.34;99564.28;4966166;28;20047;-50
2021/11/26 00:09:02;;;;;;;6.95;1.48;;;;;;;1.99;70.61;99547.13;4968068;28;20042;-44
2021/11/26 00:11:29;;;;;;;4.68;1.13;;;;;;;1.95;69.63;99540.19;4966991;28;20055;-44
2021/11/26 00:14:05;;;;;;;4.53;1.55;;;;;;;1.89;69.83;99528.16;4967905;28;20121;-47
2021/11/26 00:16:36;;;;;;;2.78;1.17;;;;;;;1.85;69.52;99518.66;4965971;28;20051;-47
2021/11/26 00:19:05;;;;;;;5.93;1.60;;;;;;;1.80;70.99;99511.75;4964326;28;20101;-48
2021/11/26 00:21:35;;;;;;;7.97;2.88;;;;;;;1.78;70.34;99497.22;4966262;28;20047;-47
2021/11/26 00:24:03;;;;;;;9.25;1.50;;;;;;;1.72;70.26;99486.88;4975906;28;20143;-48
2021/11/26 00:26:29;;;;;;;4.38;1.20;;;;;;;1.69;71.08;99474.88;4967208;28;20058;-43
2021/11/26 00:28:57;;;;;;;3.70;1.30;;;;;;;1.67;70.35;99463.78;4968395;28;20043;-45
2021/11/26 00:31:23;;;;;;;4.32;1.20;;;;;;;1.65;70.30;99457.75;4972173;28;20673;-46
2021/11/26 00:33:50;;;;;;;7.85;1.50;;;;;;;1.63;71.89;99456.88;4968442;28;20051;-47
2021/11/26 00:36:17;;;;;;;4.30;1.58;;;;;;;1.62;71.26;99447.50;4971589;28;20109;-50
2021/11/26 00:38:43;;;;;;;4.55;1.33;;;;;;;1.63;70.84;99444.13;4969989;28;20187;-45
2021/11/26 00:41:10;;;;;;;5.00;1.40;;;;;;;1.62;71.12;99447.50;4970702;28;20054;-48
2021/11/26 00:43:38;;;;;;;8.05;1.38;;;;;;;1.59;70.66;99435.50;4971453;28;20679;-46
2021/11/26 00:46:04;;;;;;;5.68;1.27;;;;;;;1.58;70.70;99433.78;4981107;28;20066;-46
2021/11/26 00:48:31;;;;;;;4.13;1.25;;;;;;;1.54;71.05;99437.97;4968347;28;20109;-44
2021/11/26 00:50:57;;;;;;;5.75;1.35;;;;;;;1.51;70.60;99422.56;4968021;28;20086;-48
2021/11/26 00:53:24;;;;;;;4.90;0.93;;;;;;;1.47;70.89;99415.66;4970184;28;20395;-46
2021/11/26 00:55:51;;;;;;;5.65;1.55;;;;;;;1.44;70.42;99407.06;4969077;28;20113;-42
2021/11/26 00:58:17;;;;;;;6.70;1.73;;;;;;;1.38;71.18;99397.56;4970552;28;20047;-46
2021/11/26 01:00:44;;;;;;;3.72;1.10;;;;;;;1.35;71.02;99384.75;4968574;28;20702;-44
2021/11/26 01:03:11;;;;;;;4.88;1.83;;;;;;;1.32;71.01;99380.41;4967755;28;20046;-45
2021/11/26 01:05:38;;;;;;;5.25;1.13;;;;;;;1.31;71.11;99370.19;4969907;28;20145;-47
2021/11/26 01:08:05;;;;;;;7.30;2.10;;;;;;;1.29;71.23;99359.94;4967779;28;20055;-47
2021/11/26 01:10:32;;;;;;;2.95;1.10;;;;;;;1.30;71.00;99345.50;4966283;28;20089;-44
2021/11/26 01:13:00;;;;;;;3.08;1.10;;;;;;;1.30;71.13;99342.94;4967993;28;20105;-45
2021/11/26 01:15:30;;;;;;;6.13;1.40;;;;;;;1.32;71.65;99336.19;4967038;28;20042;-44
2021/11/26 01:17:58;;;;;;;;;;;;;;;1.28;73.10;99327.59;4967190;28;20220;-48
2021/11/26 01:20:29;;;;;;;5.20;0.90;;;;;;;1.32;72.86;99315.78;4969403;28;19965;-44
2021/11/26 01:22:58;;;;;;;4.80;1.23;;;;;;;1.33;73.12;99310.72;4969683;28;20063;-48
2021/11/26 01:25:27;;;;;;;4.72;1.33;;;;;;;1.37;72.98;99301.44;4970279;28;20710;-47
2021/11/26 01:27:55;;;;;;;4.22;1.85;;;;;;;1.40;72.82;99291.28;4968844;28;20057;-43
2021/11/26 01:30:28;;;;;;;5.47;1.17;;;;;;;1.46;72.94;99281.22;4969377;28;20051;-45
2021/11/26 01:32:58;;;;;;;2.65;1.15;;;;;;;1.49;73.00;99276.16;4967566;28;20101;-46
2021/11/26 01:35:25;;;;;;;5.45;0.82;;;;;;;1.57;72.72;99262.72;4969782;28;20051;-45
2021/11/26 01:37:52;;;;;;;3.05;0.82;;;;;;;1.61;73.78;99254.28;4978000;28;20038;-45
2021/11/26 01:40:19;;;;;;;6.97;1.00;;;;;;;1.69;73.19;99246.81;4969486;28;20051;-48
2021/11/26 01:42:48;;;;;;;3.45;0.70;;;;;;;1.75;73.55;99237.56;4970833;28;20101;-44
2021/11/26 01:45:16;;;;;;;3.03;0.98;;;;;;;1.79;72.32;99234.25;4970198;28;20051;-43
2021/11/26 01:47:44;;;;;;;5.70;0.90;;;;;;;1.83;73.76;99216.44;4967583;28;20051;-44
2021/11/26 01:50:13;;;;;;;3.58;1.15;;;;;;;1.89;73.24;99207.19;4968409;28;20129;-46
2021/11/26 01:52:40;;;;;;;2.63;0.60;;;;;;;1.95;73.10;99200.50;4967752;28;20113;-45
2021/11/26 01:55:10;;;;;;;6.15;0.70;;;;;;;2.00;71.79;99197.19;4967157;28;20443;-47
2021/11/26 01:57:37;;;;;;;;;;;;;;;2.02;74.08;99185.31;4966607;28;20042;-44
2021/11/26 02:00:10;;;;;;;3.10;0.70;;;;;;;2.08;72.44;99176.00;4968598;28;19930;-45
2021/11/26 02:02:37;;;;;;;6.65;1.30;;;;;;;2.12;72.73;99173.53;4965659;28;20600;-43
2021/11/26 02:05:05;;;;;;;3.08;1.38;;;;;;;2.18;72.95;99185.56;4967606;28;20069;-49
2021/11/26 02:07:32;;;;;;;2.40;0.88;;;;;;;2.22;72.22;99172.00;4977563;28;20050;-48
2021/11/26 02:09:58;;;;;;;4.00;1.02;;;;;;;2.28;72.51;99164.47;4968136;28;20062;-48
2021/11/26 02:12:25;;;;;;;3.70;1.05;;;;;;;2.33;72.18;99158.56;4967455;28;20130;-45
2021/11/26 02:14:52;;;;;;;9.07;1.00;;;;;;;2.36;72.85;99144.13;4968263;28;20109;-45
2021/11/26 02:17:19;;;;;;;3.72;1.20;;;;;;;2.43;73.10;99139.97;4964969;28;20046;-45
2021/11/26 02:19:46;;;;;;;3.70;1.20;;;;;;;2.45;72.29;99133.19;4967915;28;20046;-42
2021/11/26 02:22:12;;;;;;;3.15;0.73;;;;;;;2.48;72.61;99125.59;4967129;28;20573;-42
2021/11/26 02:24:39;;;;;;;4.82;0.82;;;;;;;2.49;72.91;99117.06;4964982;28;21712;-50
2021/11/26 02:27:05;;;;;;;4.15;1.10;;;;;;;2.51;73.67;99105.19;4967296;28;20055;-44
2021/11/26 02:29:32;;;;;;;3.20;1.00;;;;;;;2.56;72.66;99101.00;4963957;28;20054;-48
2021/11/26 02:31:59;;;;;;;4.32;1.00;;;;;;;2.57;72.34;99097.59;4969205;28;20072;-46
2021/11/26 02:34:25;;;;;;;5.70;0.93;;;;;;;2.57;72.73;99091.63;4968085;28;20047;-47
2021/11/26 02:36:53;;;;;;;7.57;1.25;;;;;;;2.60;72.59;99076.31;4967260;28;20575;-45
2021/11/26 02:39:20;;;;;;;1.35;0.70;;;;;;;2.63;72.49;99070.41;4968868;28;20051;-44
2021/11/26 02:41:49;;;;;;;2.83;1.05;;;;;;;2.64;72.40;99061.88;4967667;28;20050;-45
2021/11/26 02:44:16;;;;;;;2.88;0.63;;;;;;;2.66;72.89;99055.94;4968303;28;20055;-44
2021/11/26 02:46:42;;;;;;;3.17;1.55;;;;;;;2.66;72.15;99049.97;4969066;28;20435;-48
2021/11/26 02:49:09;;;;;;;7.88;0.80;;;;;;;2.68;72.36;99040.63;4968332;28;20055;-46
2021/11/26 02:51:36;;;;;;;3.03;0.95;;;;;;;2.68;72.61;99022.72;4968248;28;20046;-45
2021/11/26 02:54:03;;;;;;;3.90;0.88;;;;;;;2.68;72.36;99022.72;4966791;28;20126;-46
2021/11/26 02:56:29;;;;;;;4.20;0.90;;;;;;;2.71;72.18;99010.00;4966645;28;20042;-43
2021/11/26 02:58:56;;;;;;;4.97;1.05;;;;;;;2.71;72.91;99007.44;4963868;28;20371;-47
2021/11/26 03:01:23;;;;;;;2.08;0.55;;;;;;;2.72;73.18;98995.50;4966651;28;20430;-47
2021/11/26 03:03:50;;;;;;;2.53;0.73;;;;;;;2.72;73.57;98986.13;4967644;28;20105;-45
2021/11/26 03:06:16;;;;;;;7.45;1.42;;;;;;;2.75;74.03;98967.41;4968505;28;20458;-44
2021/11/26 03:08:43;;;;;;;1.88;0.77;;;;;;;2.77;73.49;98943.56;4969290;28;20760;-48
2021/11/26 03:11:10;;;;;;;6.85;1.10;;;;;;;2.80;73.25;98925.69;4966880;28;20113;-43
2021/11/26 03:13:37;;;;;;;8.55;1.25;;;;;;;2.83;72.93;98914.63;4967404;28;20043;-49
2021/11/26 03:16:04;;;;;;;8.63;0.93;;;;;;;2.86;73.14;98918.91;4963869;28;20102;-45
2021/11/26 03:18:31;;;;;;;2.53;1.02;;;;;;;2.88;73.17;98899.34;4966916;28;20054;-45
2021/11/26 03:20:57;;;;;;;5.43;0.60;;;;;;;2.90;73.37;98883.16;4966240;28;20047;-47
2021/11/26 03:23:25;;;;;;;5.50;0.77;;;;;;;2.93;73.90;98890.00;4965345;28;20058;-47
2021/11/26 03:25:52;;;;;;;1.92;0.50;;;;;;;2.96;73.79;98887.50;4972936;28;20165;-45
2021/11/26 03:28:18;;;;;;;3.30;0.77;;;;;;;2.99;72.72;98868.75;4961639;28;20638;-43
2021/11/26 03:30:45;;;;;;;1.60;0.65;;;;;;;3.00;73.62;98855.97;4967875;28;20451;-47
2021/11/26 03:33:12;;;;;;;10.25;1.00;;;;;;;3.02;72.74;98828.72;4965301;28;20063;-47
2021/11/26 03:35:39;;;;;;;3.55;0.88;;;;;;;3.04;73.09;98821.91;4965186;28;20482;-43
2021/11/26 03:38:05;;;;;;;1.00;0.63;;;;;;;3.07;72.79;98800.59;4965710;28;20054;-46
2021/11/26 03:40:32;;;;;;;4.97;0.93;;;;;;;3.08;72.76;98790.38;4966447;28;20503;-50
2021/11/26 03:42:59;;;;;;;5.03;0.63;;;;;;;3.10;73.67;98785.28;4965806;28;20462;-44
2021/11/26 03:45:29;;;;;;;5.82;0.70;;;;;;;3.11;73.63;98775.91;4964478;28;20572;-48
2021/11/26 03:47:56;;;;;;;4.20;1.52;;;;;;;3.14;74.02;98771.66;4962201;28;20082;-43
2021/11/26 03:50:23;;;;;;;2.90;0.40;;;;;;;3.14;73.33;98770.81;4965223;28;20487;-48
2021/11/26 03:52:51;;;;;;;2.50;0.73;;;;;;;3.17;73.79;98770.81;4977090;28;20350;-45
2021/11/26 03:55:21;;;;;;;5.82;0.77;;;;;;;3.21;74.03;98765.72;4964817;28;20042;-45
2021/11/26 03:57:48;;;;;;;;;;;;;;;3.18;73.19;98762.31;4967554;28;20050;-45
2021/11/26 04:00:17;;;;;;;2.30;0.68;;;;;;;3.24;73.23;98764.88;4966058;28;19981;-45
2021/11/26 04:02:44;;;;;;;2.45;1.10;;;;;;;3.23;74.32;98755.50;4965896;28;20050;-48
2021/11/26 04:05:12;;;;;;;6.13;0.90;;;;;;;3.27;73.29;98747.00;4968709;28;20810;-45
2021/11/26 04:07:39;;;;;;;2.08;0.45;;;;;;;3.31;72.96;98737.66;4970006;28;20046;-44
2021/11/26 04:10:07;;;;;;;5.22;0.90;;;;;;;3.37;73.70;98731.72;4966121;28;20191;-46
2021/11/26 04:12:34;;;;;;;5.22;0.85;;;;;;;3.36;74.36;98724.84;4971563;28;20097;-50
2021/11/26 04:15:06;;;;;;;4.25;1.38;;;;;;;3.39;72.94;98714.66;4969016;28;21633;-44
2021/11/26 04:17:34;;;;;;;6.00;1.25;;;;;;;3.42;73.40;98689.06;4970063;28;20058;-48
2021/11/26 04:20:01;;;;;;;6.95;0.82;;;;;;;3.43;74.17;98690.78;4968657;28;20089;-45
2021/11/26 04:22:27;;;;;;;3.47;1.00;;;;;;;3.45;74.13;98694.22;4969808;28;20105;-46
2021/11/26 04:24:54;;;;;;;5.43;0.80;;;;;;;3.48;73.80;98684.00;4967692;28;20046;-46
2021/11/26 04:27:20;;;;;;;3.70;0.80;;;;;;;3.52;73.78;98669.47;4970546;28;20050;-43
2021/11/26 04:29:47;;;;;;;3.70;0.68;;;;;;;3.52;73.36;98670.34;4971371;28;20047;-47
2021/11/26 04:32:15;;;;;;;3.10;0.93;;;;;;;3.55;73.04;98667.78;4971081;28;20051;-48
2021/11/26 04:34:42;;;;;;;4.85;0.88;;;;;;;3.59;73.39;98645.63;4970704;28;20146;-46
2021/11/26 04:37:09;;;;;;;1.80;1.00;;;;;;;3.58;73.55;98626.81;4970541;28;20055;-46
2021/11/26 04:39:36;;;;;;;6.55;0.80;;;;;;;3.60;72.94;98622.56;4967665;28;20045;-46
2021/11/26 04:42:03;;;;;;;2.30;0.50;;;;;;;3.60;73.61;98612.34;4970312;28;20623;-49
2021/11/26 04:44:29;;;;;;;2.70;0.70;;;;;;;3.56;73.20;98596.94;4970546;28;20049;-46
2021/11/26 04:46:56;;;;;;;2.13;1.02;;;;;;;3.59;73.30;98579.88;4969522;28;20101;-46
2021/11/26 04:49:22;;;;;;;6.15;0.70;;;;;;;3.58;73.66;98562.81;4971219;28;20043;-48
2021/11/26 04:51:49;;;;;;;4.43;1.00;;;;;;;3.62;73.06;98562.81;4970221;28;20113;-47
2021/11/26 04:54:16;;;;;;;7.00;0.68;;;;;;;3.63;73.60;98554.28;4969526;28;20105;-49
2021/11/26 04:56:42;;;;;;;3.78;0.90;;;;;;;3.62;73.59;98538.09;4969371;28;20117;-46
2021/11/26 04:59:09;;;;;;;3.72;0.77;;;;;;;3.62;72.92;98532.09;4969279;28;20073;-46
2021/11/26 05:01:35;;;;;;;1.65;0.73;;;;;;;3.62;73.87;98526.97;4969097;28;20104;-48
2021/11/26 05:04:02;;;;;;;5.97;0.80;;;;;;;3.64;74.03;98504.81;4968560;28;20126;-43
2021/11/26 05:06:29;;;;;;;2.30;0.60;;;;;;;3.63;74.44;98482.59;4966866;28;20483;-51
2021/11/26 05:08:55;;;;;;;6.70;0.82;;;;;;;3.62;74.49;98475.78;4968860;28;20607;-43
2021/11/26 05:11:22;;;;;;;1.70;0.88;;;;;;;3.64;74.50;98471.50;4971617;28;20635;-48
2021/11/26 05:13:49;;;;;;;2.95;0.52;;;;;;;3.65;73.93;98457.84;4968846;28;20450;-46
2021/11/26 05:16:16;;;;;;;3.42;1.20;;;;;;;3.65;73.98;98442.50;4970838;28;20054;-46
2021/11/26 05:18:44;;;;;;;4.20;0.88;;;;;;;3.65;74.42;98424.56;4968027;28;20051;-47
2021/11/26 05:21:12;;;;;;;3.08;0.82;;;;;;;3.65;74.25;98414.31;4969721;28;20047;-48
2021/11/26 05:23:38;;;;;;;3.53;0.40;;;;;;;3.63;74.39;98409.19;4969464;28;20046;-44
2021/11/26 05:26:05;;;;;;;3.83;0.80;;;;;;;3.62;74.56;98393.84;4967828;28;20051;-46
2021/11/26 05:28:32;;;;;;;4.60;1.00;;;;;;;3.63;74.84;98388.72;4966651;28;20047;-48
2021/11/26 05:30:59;;;;;;;2.97;0.85;;;;;;;3.62;74.54;98379.34;4965697;28;21521;-45
2021/11/26 05:33:26;;;;;;;6.78;0.82;;;;;;;3.63;74.37;98355.44;4968597;28;20553;-47
2021/11/26 05:35:52;;;;;;;3.70;0.75;;;;;;;3.62;75.19;98352.88;4967609;28;20088;-46
2021/11/26 05:38:19;;;;;;;7.38;0.80;;;;;;;3.63;74.54;98339.22;4968036;28;20055;-50
2021/11/26 05:40:46;;;;;;;2.80;0.65;;;;;;;3.63;74.22;98328.97;4968712;28;20050;-50
2021/11/26 05:43:14;;;;;;;4.72;1.05;;;;;;;3.64;75.17;98326.41;4967055;28;20109;-47
2021/11/26 05:45:41;;;;;;;5.95;0.75;;;;;;;3.65;74.96;98329.81;4979301;28;20062;-48
2021/11/26 05:48:08;;;;;;;4.57;0.60;;;;;;;3.68;75.67;98324.69;4967462;28;20579;-45
2021/11/26 05:50:35;;;;;;;7.47;0.93;;;;;;;3.71;74.85;98319.53;4965905;28;20068;-45
2021/11/26 05:53:02;;;;;;;3.38;0.70;;;;;;;3.72;74.62;98321.28;4969539;28;20055;-50
2021/11/26 05:55:31;;;;;;;4.00;0.80;;;;;;;3.76;75.11;98293.94;4969917;28;20105;-45
2021/11/26 05:58:00;;;;;;;3.28;0.45;;;;;;;3.78;74.94;98277.69;4968817;28;20097;-50
2021/11/26 06:00:29;;;;;;;3.33;0.52;;;;;;;3.80;75.28;98273.44;4969014;28;20046;-48
2021/11/26 06:02:56;;;;;;;5.50;0.40;;;;;;;3.80;75.83;98270.88;4984252;28;20085;-46
2021/11/26 06:05:24;;;;;;;3.65;0.77;;;;;;;3.83;76.03;98265.75;4965293;28;20043;-46
2021/11/26 06:07:51;;;;;;;3.45;0.50;;;;;;;3.86;75.82;98254.63;4968331;28;20051;-43
2021/11/26 06:10:18;;;;;;;3.60;0.50;;;;;;;3.92;75.48;98251.19;4967465;28;20640;-46
2021/11/26 06:12:47;;;;;;;3.17;0.52;;;;;;;3.96;75.15;98250.31;4970452;28;20047;-49
2021/11/26 06:15:16;;;;;;;3.70;0.68;;;;;;;3.99;75.97;98234.94;4968032;28;20105;-48
2021/11/26 06:17:43;;;;;;;2.72;0.47;;;;;;;4.03;75.23;98221.25;4961371;28;20051;-46
2021/11/26 06:20:11;;;;;;;2.60;0.63;;;;;;;4.07;75.37;98232.31;4962747;28;20074;-47
2021/11/26 06:22:40;;;;;;;1.55;0.50;;;;;;;4.09;75.52;98218.63;4963791;28;20054;-46
2021/11/26 06:25:08;;;;;;;4.97;0.80;;;;;;;4.11;75.50;98214.38;4969740;28;20106;-49
2021/11/26 06:27:35;;;;;;;5.28;0.98;;;;;;;4.15;76.06;98204.09;4967457;28;20391;-45
2021/11/26 06:30:02;;;;;;;4.80;1.13;;;;;;;4.21;75.44;98193.78;4967157;28;20053;-51
2021/11/26 06:32:29;;;;;;;2.20;0.75;;;;;;;4.26;75.49;98191.22;4967566;28;20051;-47
2021/11/26 06:34:55;;;;;;;8.27;1.15;;;;;;;4.31;75.59;98182.63;4965770;28;20406;-47
2021/11/26 06:37:22;;;;;;;2.75;0.38;;;;;;;4.32;75.68;98168.94;4968474;28;20683;-48
2021/11/26 06:39:49;;;;;;;4.40;0.88;;;;;;;4.34;76.33;98159.53;4967323;28;20101;-45
2021/11/26 06:42:15;;;;;;;12.93;3.42;;;;;;;4.34;76.02;98156.97;4969974;28;20062;-47
2021/11/26 06:44:42;;;;;;;21.27;8.90;;;;;;;4.39;75.72;98150.97;4967090;28;20054;-48
2021/11/26 06:47:08;;;;;;;38.90;16.00;;;;;;;4.42;75.43;98141.53;4966370;28;20058;-49
2021/11/26 06:49:36;;;;;;;17.48;7.50;;;;;;;4.46;76.01;98142.38;4967214;28;20161;-46
2021/11/26 06:52:03;;;;;;;4.10;1.77;;;;;;;4.50;76.05;98144.03;4965595;28;20054;-46
2021/11/26 06:54:30;;;;;;;5.28;0.85;;;;;;;4.56;75.96;98123.44;4964866;28;20388;-48
2021/11/26 06:56:56;;;;;;;2.78;0.73;;;;;;;4.58;76.29;98126.88;4967035;28;20113;-51
2021/11/26 06:59:23;;;;;;;3.67;1.17;;;;;;;4.63;76.31;98109.72;4964157;28;20759;-52
2021/11/26 07:01:49;;;;;;;3.17;1.15;;;;;;;4.63;76.49;98106.31;4963859;28;20065;-51
2021/11/26 07:04:16;;;;;;;3.22;0.70;;;;;;;4.62;76.83;98102.88;4966288;28;20142;-50
2021/11/26 07:06:43;;;;;;;5.57;0.80;;;;;;;4.64;76.83;98090.06;4966079;28;20047;-48
2021/11/26 07:09:09;;;;;;;3.05;0.70;;;;;;;4.66;77.50;98084.91;4967901;28;20059;-46
2021/11/26 07:11:36;;;;;;;4.30;1.23;;;;;;;4.69;77.03;98087.44;4970180;28;20051;-48
2021/11/26 07:14:03;;;;;;;2.10;0.38;;;;;;;4.73;76.80;98073.72;4965726;28;20051;-50
2021/11/26 07:16:30;;;;;;;3.03;1.00;;;;;;;4.73;76.69;98074.56;4966754;28;20122;-47
2021/11/26 07:18:57;;;;;;;2.42;0.73;;;;;;;4.76;76.65;98060.84;4965575;28;20093;-51
2021/11/26 07:21:24;;;;;;;2.67;0.70;;;;;;;4.76;76.76;98053.16;4966950;28;20113;-50
2021/11/26 07:23:51;;;;;;;2.17;1.13;;;;;;;4.77;76.94;98060.00;4965689;28;20113;-49
2021/11/26 07:26:17;;;;;;;2.22;0.90;;;;;;;4.80;76.72;98047.13;4962546;28;20838;-53
2021/11/26 07:28:44;;;;;;;1.55;0.60;;;;;;;4.82;77.01;98042.84;4966413;28;20073;-51
2021/11/26 07:31:11;;;;;;;5.28;1.02;;;;;;;4.84;76.80;98046.25;4962070;28;20090;-47
2021/11/26 07:33:37;;;;;;;5.18;1.40;;;;;;;4.88;76.43;98032.50;4966181;28;21889;-51
2021/11/26 07:36:06;;;;;;;1.65;0.70;;;;;;;4.89;77.33;98039.31;4968336;28;20487;-48
2021/11/26 07:38:34;;;;;;;2.00;0.90;;;;;;;4.93;76.96;98029.03;4970490;28;20054;-49
2021/11/26 07:41:01;;;;;;;1.70;0.93;;;;;;;4.95;77.33;98034.97;4968047;28;20047;-46
2021/11/26 07:43:28;;;;;;;4.47;1.38;;;;;;;4.97;76.72;98023.00;4974316;28;20052;-48
2021/11/26 07:45:57;;;;;;;2.42;1.13;;;;;;;4.96;78.00;98013.59;4971074;28;20609;-47
2021/11/26 07:48:24;;;;;;;3.88;0.65;;;;;;;4.96;78.33;98018.75;4975839;28;20372;-48
2021/11/26 07:50:51;;;;;;;4.00;1.42;;;;;;;4.98;77.71;98011.84;4972560;28;20046;-52
2021/11/26 07:53:18;;;;;;;2.95;0.93;;;;;;;5.01;77.33;98014.38;4969348;28;20532;-53
2021/11/26 07:55:44;;;;;;;2.08;0.70;;;;;;;4.98;77.62;98017.84;4971771;28;20079;-51
2021/11/26 07:58:12;;;;;;;4.88;0.65;;;;;;;4.98;78.74;98001.59;4973074;28;20046;-49
2021/11/26 08:00:39;;;;;;;3.78;0.85;;;;;;;4.98;78.74;98022.13;4967335;28;20047;-52
2021/11/26 08:03:08;;;;;;;3.72;0.98;;;;;;;5.02;77.76;98036.59;4968946;28;20073;-50
2021/11/26 08:05:56;;;;;;;2.67;0.85;;;;;;;5.03;77.93;98002.38;4973319;28;20561;-50
2021/11/26 08:08:23;;;;;;;3.17;0.80;;;;;;;5.05;78.67;98008.34;4974548;28;20058;-50
2021/11/26 08:10:50;;;;;;;9.45;4.05;;;;;;;5.04;78.45;98001.53;4971686;28;20042;-48
2021/11/26 08:13:16;;;;;;;5.55;2.42;;;;;;;5.04;78.95;97973.31;4974327;28;20116;-51
2021/11/26 08:15:43;;;;;;;6.20;1.83;;;;;;;5.06;78.52;97968.97;4968793;28;20475;-49
2021/11/26 08:18:10;;;;;;;2.65;1.25;;;;;;;5.07;78.13;97957.00;4972048;28;20062;-47
2021/11/26 08:20:37;;;;;;;1.73;0.90;;;;;;;5.06;78.66;97943.31;4969208;28;20138;-48
2021/11/26 08:23:06;;;;;;;3.85;1.10;;;;;;;5.09;79.55;97950.97;4972942;28;20051;-46
2021/11/26 08:25:34;;;;;;;2.85;0.93;;;;;;;5.11;79.46;97962.09;4971893;28;20093;-46
2021/11/26 08:28:01;;;;;;;4.20;1.92;;;;;;;5.16;78.79;97974.81;4972355;28;20675;-51
2021/11/26 08:30:27;;;;;;;3.50;1.75;;;;;;;5.21;79.29;97961.94;4964628;28;20058;-50
2021/11/26 08:32:54;;;;;;;2.72;1.08;;;;;;;5.22;79.04;97958.50;4969749;28;20057;-47
2021/11/26 08:35:24;;;;;;;5.38;1.27;;;;;;;5.25;79.02;97958.47;4969376;28;20047;-44
2021/11/26 08:37:52;;;;;;;2.80;0.88;;;;;;;5.26;78.33;97955.00;4967152;28;20062;-49
2021/11/26 08:40:18;;;;;;;5.05;1.40;;;;;;;5.30;78.45;97950.69;4966793;28;20093;-46
2021/11/26 08:42:45;;;;;;;1.83;0.90;;;;;;;5.31;79.02;97945.53;4968670;28;20080;-50
2021/11/26 08:45:13;;;;;;;3.28;1.10;;;;;;;5.33;79.00;97940.38;4967012;28;20137;-51
2021/11/26 08:47:40;;;;;;;2.70;0.65;;;;;;;5.36;79.03;97936.03;4965080;28;20659;-46
2021/11/26 08:50:10;;;;;;;4.05;1.00;;;;;;;5.39;78.85;97917.16;4968867;28;20054;-49
2021/11/26 08:52:37;;;;;;;3.65;0.60;;;;;;;5.44;78.28;97906.84;4968056;28;20125;-46
2021/11/26 08:55:06;;;;;;;3.25;0.75;;;;;;;5.54;78.35;97913.50;4964610;28;20051;-46
2021/11/26 08:57:34;;;;;;;2.03;0.38;;;;;;;5.81;79.71;97906.19;4967016;28;20043;-48
2021/11/26 09:00:01;;;;;;;1.60;0.40;;;;;;;6.10;78.94;97902.28;4968667;28;20047;-49
2021/11/26 09:02:27;;;;;;;1.08;0.40;;;;;;;6.22;79.08;97895.19;4970771;28;20545;-47
2021/11/26 09:04:54;;;;;;;3.15;0.77;;;;;;;6.26;78.72;97892.53;4966146;28;20050;-51
2021/11/26 09:07:21;;;;;;;0.73;0.47;;;;;;;6.35;78.51;97885.53;4970189;28;20065;-53
2021/11/26 09:09:47;;;;;;;0.82;0.30;;;;;;;6.54;79.03;97902.25;4960786;28;20061;-52
2021/11/26 09:12:14;;;;;;;2.33;0.45;;;;;;;6.63;76.96;97906.38;4966426;28;20046;-48
2021/11/26 09:14:41;;;;;;;0.38;0.38;;;;;;;6.57;77.47;97906.50;4963978;28;20054;-49
2021/11/26 09:17:08;;;;;;;2.97;0.45;;;;;;;6.56;77.65;97915.09;4967628;28;20742;-51
2021/11/26 09:19:34;;;;;;;2.35;0.52;;;;;;;6.52;77.16;97910.88;4966476;28;20446;-51
2021/11/26 09:22:01;;;;;;;1.38;0.35;;;;;;;6.45;77.00;97907.56;4967593;28;20046;-51
2021/11/26 09:24:28;;;;;;;1.85;0.30;;;;;;;6.43;78.02;97899.88;4966534;28;20050;-47
2021/11/26 09:26:54;;;;;;;1.33;0.50;;;;;;;6.36;77.89;97892.34;4966504;28;20471;-50
2021/11/26 09:29:21;;;;;;;3.05;0.55;;;;;;;6.37;77.42;97900.03;4969863;28;20055;-49
2021/11/26 09:31:48;;;;;;;1.33;0.40;;;;;;;6.30;78.89;97898.47;4967522;28;20093;-49
2021/11/26 09:34:14;;;;;;;0.77;0.60;;;;;;;6.31;78.23;97900.16;4967474;28;20121;-45
2021/11/26 09:36:41;;;;;;;3.50;0.50;;;;;;;6.31;78.14;97874.44;4966986;28;20101;-54
2021/11/26 09:39:07;;;;;;;1.60;0.60;;;;;;;6.28;78.52;97869.34;4968831;28;20047;-52
2021/11/26 09:41:34;;;;;;;1.10;0.30;;;;;;;6.27;77.69;97873.66;4966622;28;20047;-48
2021/11/26 09:44:03;;;;;;;1.05;0.22;;;;;;;6.24;76.85;97867.72;4967610;28;20047;-54
2021/11/26 09:46:34;;;;;;;1.52;0.73;;;;;;;6.25;76.85;97865.13;4967498;28;20059;-46
2021/11/26 09:49:03;;;;;;;0.73;0.20;;;;;;;6.23;77.44;97871.19;4969264;28;20486;-52
2021/11/26 09:51:29;;;;;;;1.58;0.30;;;;;;;6.19;77.95;97875.53;4982458;28;20098;-51
2021/11/26 09:53:57;;;;;;;2.90;0.35;;;;;;;6.23;76.21;97868.59;4968736;28;20482;-47
2021/11/26 09:56:24;;;;;;;1.77;0.20;;;;;;;6.23;76.12;97871.19;4966453;28;20419;-52
2021/11/26 09:58:51;;;;;;;0.60;0.35;;;;;;;6.24;76.67;97878.00;4969754;28;20474;-46
2021/11/26 10:01:17;;;;;;;4.53;0.55;;;;;;;6.24;76.39;97872.88;4966938;28;20538;-49
2021/11/26 10:03:47;;;;;;;1.63;0.50;;;;;;;6.25;75.97;97869.44;4968967;28;20050;-53
2021/11/26 10:06:25;;;;;;;3.80;0.80;;;;;;;6.26;75.29;97863.41;4966782;28;20062;-48
2021/11/26 10:09:10;;;;;;;2.53;0.63;;;;;;;6.24;76.58;97852.28;4961794;28;20255;-50
2021/11/26 10:11:47;;;;;;;1.17;0.55;;;;;;;6.28;75.27;97848.78;4965051;28;20065;-51
2021/11/26 10:14:21;;;;;;;3.08;0.70;;;;;;;6.28;76.41;97853.94;4966372;28;20109;-50
2021/11/26 10:17:06;;;;;;;1.15;0.38;;;;;;;6.24;75.62;97852.28;4968020;28;20047;-50
2021/11/26 10:19:36;;;;;;;0.82;0.52;;;;;;;6.27;75.06;97842.81;4968582;28;20058;-47
2021/11/26 10:22:28;;;;;;;1.73;0.47;;;;;;;6.17;75.23;97839.59;4968025;28;20065;-51
2021/11/26 10:24:59;;;;;;;0.30;0.30;;;;;;;6.18;73.85;97832.69;4964068;28;20106;-50
2021/11/26 10:27:37;;;;;;;3.28;0.70;;;;;;;6.13;75.21;97825.09;4966804;28;20054;-50
2021/11/26 10:30:14;;;;;;;1.65;0.73;;;;;;;6.11;74.98;97826.84;4969360;28;20051;-52
2021/11/26 10:33:04;;;;;;;1.02;0.50;;;;;;;6.03;74.50;97827.03;4963880;28;20117;-48
2021/11/26 10:35:37;;;;;;;1.00;0.65;;;;;;;6.11;74.86;97824.28;4977233;28;20086;-46
2021/11/26 10:38:11;;;;;;;3.42;0.30;;;;;;;6.32;74.63;97829.88;4967321;28;20129;-54
2021/11/26 10:40:43;;;;;;;1.20;0.13;;;;;;;6.40;74.95;97820.25;4965194;28;20043;-51
2021/11/26 10:43:16;;;;;;;0.77;0.32;;;;;;;6.46;74.14;97815.84;4977640;28;20070;-52
2021/11/26 10:46:27;;;;;;;1.45;0.43;;;;;;;6.47;73.58;97810.69;4966666;28;24336;-50
2021/11/26 10:49:17;;;;;;;4.38;0.57;;;;;;;6.50;74.23;97796.91;4966698;28;20483;-47
2021/11/26 11:00:01;;;;;;;2.45;0.20;;;;;;;7.07;72.51;97779.28;4966163;28;20462;-47
2021/11/26 11:02:34;;;;;;;3.05;0.40;;;;;;;7.19;73.65;97775.53;4967650;28;20367;-53
2021/11/26 11:05:02;;;;;;;3.17;0.75;;;;;;;7.24;72.75;97762.56;4966832;28;20459;-48
2021/11/26 11:07:42;;;;;;;2.72;0.40;;;;;;;7.14;72.67;97751.66;4963334;28;20441;-46
2021/11/26 11:10:10;;;;;;;5.13;0.50;;;;;;;7.18;72.75;97753.25;4965083;28;20062;-53
2021/11/26 11:12:38;;;;;;;3.00;0.57;;;;;;;7.12;72.68;97751.69;4982240;28;20055;-51
2021/11/26 11:15:08;;;;;;;3.42;0.50;;;;;;;7.02;72.85;97765.66;4965228;28;20513;-50
2021/11/26 11:17:36;;;;;;;2.25;0.20;;;;;;;6.93;73.36;97757.28;4966216;28;20051;-54
2021/11/26 11:20:07;;;;;;;4.70;0.52;;;;;;;6.94;73.46;97766.72;4976460;28;20066;-50
2021/11/26 11:22:35;;;;;;;2.15;0.60;;;;;;;6.93;73.24;97772.72;4968357;28;20113;-50
2021/11/26 11:25:03;;;;;;;4.57;0.63;;;;;;;6.91;72.22;97759.06;4966043;28;20475;-52
2021/11/26 11:27:30;;;;;;;2.95;0.70;;;;;;;6.85;73.38;97751.50;4976642;28;20096;-49
2021/11/26 11:29:57;;;;;;;2.38;0.50;;;;;;;6.86;71.85;97739.47;4969257;28;20058;-51
2021/11/26 11:32:26;;;;;;;2.95;0.55;;;;;;;6.85;73.37;97728.34;4963481;28;20105;-51
2021/11/26 11:34:55;;;;;;;1.35;0.10;;;;;;;6.82;70.65;97718.13;4964450;28;20050;-50
2021/11/26 11:37:25;;;;;;;1.27;0.40;;;;;;;6.79;70.32;97710.50;4962284;28;20085;-48
2021/11/26 11:39:54;;;;;;;4.85;1.10;;;;;;;6.80;70.48;97718.16;4968791;28;20073;-46
2021/11/26 11:42:39;;;;;;;2.35;0.60;;;;;;;6.82;69.59;97708.69;4968149;28;20488;-52
2021/11/26 11:45:12;;;;;;;1.27;0.45;;;;;;;6.88;69.42;97693.94;4967374;28;20097;-47
2021/11/26 11:47:46;;;;;;;2.08;0.20;;;;;;;6.99;70.22;97704.00;4968935;28;20503;-57
2021/11/26 11:50:19;;;;;;;5.13;1.25;;;;;;;7.17;67.90;97700.91;4966225;28;20043;-47
2021/11/26 11:52:51;;;;;;;1.27;0.57;;;;;;;7.32;67.94;97699.66;4965690;28;20050;-49
2021/11/26 11:55:23;;;;;;;0.93;0.20;;;;;;;7.42;68.29;97697.69;4966574;28;20050;-48